sensor_id;sensor_type;location;lat;lon;timestamp;P1;durP1;ratioP1;P2;durP2;ratioP2
9906;SDS011;4992;51.628;6.664;2023-12-04T00:01:57;22.47;;;14.97;;
9906;SDS011;4992;51.628;6.664;2023-12-04T00:04:23;22.87;;;15.10;;
9906;SDS011;4992;51.628;6.664;2023-12-04T00:06:48;26.23;;;15.57;;
9906;SDS011;4992;51.628;6.664;2023-12-04T00:09:14;22.13;;;14.57;;
9906;SDS011;4992;51.628;6.664;2023-12-04T00:11:40;22.97;;;14.53;;
9906;SDS011;4992;51.628;6.664;2023-12-04T00:14:05;19.43;;;13.93;;
9906;SDS011;4992;51.628;6.664;2023-12-04T00:16:33;20.10;;;15.10;;
9906;SDS011;4992;51.628;6.664;2023-12-04T00:19:00;21.23;;;13.37;;
9906;SDS011;4992;51.628;6.664;2023-12-04T00:21:25;21.20;;;14.73;;
9906;SDS011;4992;51.628;6.664;2023-12-04T00:23:51;20.87;;;13.87;;
9906;SDS011;4992;51.628;6.664;2023-12-04T00:26:16;22.17;;;15.23;;
9906;SDS011;4992;51.628;6.664;2023-12-04T00:28:42;25.23;;;14.83;;
9906;SDS011;4992;51.628;6.664;2023-12-04T00:31:08;25.37;;;14.13;;
9906;SDS011;4992;51.628;6.664;2023-12-04T00:33:35;19.73;;;13.90;;
9906;SDS011;4992;51.628;6.664;2023-12-04T00:36:01;19.27;;;13.43;;
9906;SDS011;4992;51.628;6.664;2023-12-04T00:38:26;19.17;;;12.83;;
9906;SDS011;4992;51.628;6.664;2023-12-04T00:40:52;21.83;;;13.43;;
9906;SDS011;4992;51.628;6.664;2023-12-04T00:43:17;17.53;;;12.67;;
9906;SDS011;4992;51.628;6.664;2023-12-04T00:45:43;22.47;;;13.77;;
9906;SDS011;4992;51.628;6.664;2023-12-04T00:48:08;20.80;;;12.37;;
9906;SDS011;4992;51.628;6.664;2023-12-04T00:50:34;20.10;;;12.37;;
9906;SDS011;4992;51.628;6.664;2023-12-04T00:52:59;19.00;;;12.30;;
9906;SDS011;4992;51.628;6.664;2023-12-04T00:55:25;20.70;;;12.70;;
9906;SDS011;4992;51.628;6.664;2023-12-04T00:57:50;19.00;;;12.73;;
9906;SDS011;4992;51.628;6.664;2023-12-04T01:00:16;18.53;;;12.20;;
9906;SDS011;4992;51.628;6.664;2023-12-04T01:02:42;21.80;;;12.23;;
9906;SDS011;4992;51.628;6.664;2023-12-04T01:05:07;17.23;;;12.33;;
9906;SDS011;4992;51.628;6.664;2023-12-04T01:07:33;17.03;;;11.63;;
9906;SDS011;4992;51.628;6.664;2023-12-04T01:09:59;21.43;;;12.77;;
9906;SDS011;4992;51.628;6.664;2023-12-04T01:12:24;20.03;;;12.30;;
9906;SDS011;4992;51.628;6.664;2023-12-04T01:14:50;15.03;;;11.33;;
9906;SDS011;4992;51.628;6.664;2023-12-04T01:17:15;19.50;;;12.70;;
9906;SDS011;4992;51.628;6.664;2023-12-04T01:19:41;19.27;;;12.67;;
9906;SDS011;4992;51.628;6.664;2023-12-04T01:22:06;22.30;;;13.57;;
9906;SDS011;4992;51.628;6.664;2023-12-04T01:24:32;20.93;;;13.03;;
9906;SDS011;4992;51.628;6.664;2023-12-04T01:26:57;19.07;;;12.20;;
9906;SDS011;4992;51.628;6.664;2023-12-04T01:29:23;19.07;;;12.60;;
9906;SDS011;4992;51.628;6.664;2023-12-04T01:31:48;18.60;;;11.67;;
9906;SDS011;4992;51.628;6.664;2023-12-04T01:34:14;17.93;;;12.27;;
9906;SDS011;4992;51.628;6.664;2023-12-04T01:36:40;20.83;;;13.07;;
9906;SDS011;4992;51.628;6.664;2023-12-04T01:39:06;19.47;;;12.60;;
9906;SDS011;4992;51.628;6.664;2023-12-04T01:41:32;18.67;;;12.00;;
9906;SDS011;4992;51.628;6.664;2023-12-04T01:43:57;20.67;;;13.30;;
9906;SDS011;4992;51.628;6.664;2023-12-04T01:46:23;18.03;;;11.73;;
9906;SDS011;4992;51.628;6.664;2023-12-04T01:48:48;19.67;;;12.90;;
9906;SDS011;4992;51.628;6.664;2023-12-04T01:51:14;20.43;;;13.07;;
9906;SDS011;4992;51.628;6.664;2023-12-04T01:53:42;18.63;;;11.77;;
9906;SDS011;4992;51.628;6.664;2023-12-04T01:56:08;22.73;;;13.27;;
9906;SDS011;4992;51.628;6.664;2023-12-04T01:58:34;20.40;;;12.07;;
9906;SDS011;4992;51.628;6.664;2023-12-04T02:01:00;16.83;;;11.80;;
9906;SDS011;4992;51.628;6.664;2023-12-04T02:03:26;18.93;;;12.87;;
9906;SDS011;4992;51.628;6.664;2023-12-04T02:05:52;18.10;;;12.10;;
9906;SDS011;4992;51.628;6.664;2023-12-04T02:08:18;14.70;;;11.40;;
9906;SDS011;4992;51.628;6.664;2023-12-04T02:10:44;16.87;;;11.07;;
9906;SDS011;4992;51.628;6.664;2023-12-04T02:13:10;12.77;;;9.60;;
9906;SDS011;4992;51.628;6.664;2023-12-04T02:15:36;14.13;;;10.40;;
9906;SDS011;4992;51.628;6.664;2023-12-04T02:18:04;13.80;;;10.53;;
9906;SDS011;4992;51.628;6.664;2023-12-04T02:20:30;13.40;;;9.27;;
9906;SDS011;4992;51.628;6.664;2023-12-04T02:22:57;11.73;;;9.23;;
9906;SDS011;4992;51.628;6.664;2023-12-04T02:25:23;14.87;;;9.33;;
9906;SDS011;4992;51.628;6.664;2023-12-04T02:27:51;14.13;;;9.30;;
9906;SDS011;4992;51.628;6.664;2023-12-04T02:30:19;11.53;;;8.57;;
9906;SDS011;4992;51.628;6.664;2023-12-04T02:32:48;12.53;;;9.10;;
9906;SDS011;4992;51.628;6.664;2023-12-04T02:35:18;11.47;;;9.33;;
9906;SDS011;4992;51.628;6.664;2023-12-04T02:37:46;16.47;;;9.13;;
9906;SDS011;4992;51.628;6.664;2023-12-04T02:40:13;11.90;;;9.07;;
9906;SDS011;4992;51.628;6.664;2023-12-04T02:42:39;12.50;;;9.73;;
9906;SDS011;4992;51.628;6.664;2023-12-04T02:45:05;13.40;;;9.80;;
9906;SDS011;4992;51.628;6.664;2023-12-04T02:47:31;12.93;;;9.80;;
9906;SDS011;4992;51.628;6.664;2023-12-04T02:49:56;15.80;;;10.47;;
9906;SDS011;4992;51.628;6.664;2023-12-04T02:52:22;13.23;;;9.97;;
9906;SDS011;4992;51.628;6.664;2023-12-04T02:54:47;14.07;;;10.00;;
9906;SDS011;4992;51.628;6.664;2023-12-04T02:57:13;18.67;;;11.13;;
9906;SDS011;4992;51.628;6.664;2023-12-04T02:59:38;15.83;;;10.53;;
9906;SDS011;4992;51.628;6.664;2023-12-04T03:02:04;15.57;;;10.13;;
9906;SDS011;4992;51.628;6.664;2023-12-04T03:04:30;18.17;;;10.23;;
9906;SDS011;4992;51.628;6.664;2023-12-04T03:06:56;19.10;;;9.83;;
9906;SDS011;4992;51.628;6.664;2023-12-04T03:09:22;15.23;;;9.93;;
9906;SDS011;4992;51.628;6.664;2023-12-04T03:11:47;19.90;;;9.93;;
9906;SDS011;4992;51.628;6.664;2023-12-04T03:14:13;12.97;;;8.93;;
9906;SDS011;4992;51.628;6.664;2023-12-04T03:16:39;12.63;;;9.00;;
9906;SDS011;4992;51.628;6.664;2023-12-04T03:19:04;13.70;;;9.33;;
9906;SDS011;4992;51.628;6.664;2023-12-04T03:21:30;13.63;;;9.17;;
9906;SDS011;4992;51.628;6.664;2023-12-04T03:23:56;18.97;;;9.23;;
9906;SDS011;4992;51.628;6.664;2023-12-04T03:26:21;15.20;;;9.27;;
9906;SDS011;4992;51.628;6.664;2023-12-04T03:28:47;10.77;;;8.40;;
9906;SDS011;4992;51.628;6.664;2023-12-04T03:31:12;11.10;;;8.30;;
9906;SDS011;4992;51.628;6.664;2023-12-04T03:33:38;9.90;;;7.43;;
9906;SDS011;4992;51.628;6.664;2023-12-04T03:36:03;10.23;;;7.37;;
9906;SDS011;4992;51.628;6.664;2023-12-04T03:38:29;9.63;;;7.20;;
9906;SDS011;4992;51.628;6.664;2023-12-04T03:40:55;9.23;;;7.20;;
9906;SDS011;4992;51.628;6.664;2023-12-04T03:43:20;9.70;;;7.00;;
9906;SDS011;4992;51.628;6.664;2023-12-04T03:45:46;11.13;;;7.23;;
9906;SDS011;4992;51.628;6.664;2023-12-04T03:48:11;10.27;;;7.70;;
9906;SDS011;4992;51.628;6.664;2023-12-04T03:50:37;10.17;;;6.77;;
9906;SDS011;4992;51.628;6.664;2023-12-04T03:53:03;8.67;;;6.63;;
9906;SDS011;4992;51.628;6.664;2023-12-04T03:55:28;8.83;;;6.60;;
9906;SDS011;4992;51.628;6.664;2023-12-04T03:57:54;9.60;;;7.10;;
9906;SDS011;4992;51.628;6.664;2023-12-04T04:00:21;9.03;;;7.30;;
9906;SDS011;4992;51.628;6.664;2023-12-04T04:02:47;8.50;;;6.40;;
9906;SDS011;4992;51.628;6.664;2023-12-04T04:05:14;11.20;;;6.63;;
9906;SDS011;4992;51.628;6.664;2023-12-04T04:07:39;9.27;;;7.27;;
9906;SDS011;4992;51.628;6.664;2023-12-04T04:10:05;8.47;;;6.10;;
9906;SDS011;4992;51.628;6.664;2023-12-04T04:12:31;8.43;;;6.73;;
9906;SDS011;4992;51.628;6.664;2023-12-04T04:14:58;10.67;;;7.80;;
9906;SDS011;4992;51.628;6.664;2023-12-04T04:17:23;8.00;;;6.53;;
9906;SDS011;4992;51.628;6.664;2023-12-04T04:19:53;8.07;;;6.27;;
9906;SDS011;4992;51.628;6.664;2023-12-04T04:22:19;8.80;;;6.90;;
9906;SDS011;4992;51.628;6.664;2023-12-04T04:24:45;9.57;;;7.17;;
9906;SDS011;4992;51.628;6.664;2023-12-04T04:27:11;10.40;;;6.73;;
9906;SDS011;4992;51.628;6.664;2023-12-04T04:29:36;8.37;;;6.70;;
9906;SDS011;4992;51.628;6.664;2023-12-04T04:32:02;10.90;;;7.37;;
9906;SDS011;4992;51.628;6.664;2023-12-04T04:34:28;9.87;;;7.57;;
9906;SDS011;4992;51.628;6.664;2023-12-04T04:36:53;12.83;;;7.50;;
9906;SDS011;4992;51.628;6.664;2023-12-04T04:39:19;8.97;;;7.50;;
9906;SDS011;4992;51.628;6.664;2023-12-04T04:41:44;12.27;;;7.53;;
9906;SDS011;4992;51.628;6.664;2023-12-04T04:44:10;10.00;;;7.93;;
9906;SDS011;4992;51.628;6.664;2023-12-04T04:46:35;10.30;;;7.17;;
9906;SDS011;4992;51.628;6.664;2023-12-04T04:49:01;10.17;;;7.20;;
9906;SDS011;4992;51.628;6.664;2023-12-04T04:51:27;12.23;;;7.83;;
9906;SDS011;4992;51.628;6.664;2023-12-04T04:53:54;10.23;;;6.43;;
9906;SDS011;4992;51.628;6.664;2023-12-04T04:56:20;8.30;;;6.40;;
9906;SDS011;4992;51.628;6.664;2023-12-04T04:58:46;7.97;;;6.30;;
9906;SDS011;4992;51.628;6.664;2023-12-04T05:01:11;11.80;;;5.87;;
9906;SDS011;4992;51.628;6.664;2023-12-04T05:03:37;13.17;;;5.47;;
9906;SDS011;4992;51.628;6.664;2023-12-04T05:06:03;9.23;;;6.23;;
9906;SDS011;4992;51.628;6.664;2023-12-04T05:08:29;7.53;;;5.70;;
9906;SDS011;4992;51.628;6.664;2023-12-04T05:10:54;8.30;;;6.13;;
9906;SDS011;4992;51.628;6.664;2023-12-04T05:13:20;9.33;;;6.50;;
9906;SDS011;4992;51.628;6.664;2023-12-04T05:15:45;6.53;;;5.50;;
9906;SDS011;4992;51.628;6.664;2023-12-04T05:18:11;6.20;;;5.03;;
9906;SDS011;4992;51.628;6.664;2023-12-04T05:20:36;6.80;;;5.57;;
9906;SDS011;4992;51.628;6.664;2023-12-04T05:23:02;6.07;;;5.17;;
9906;SDS011;4992;51.628;6.664;2023-12-04T05:25:27;7.13;;;4.77;;
9906;SDS011;4992;51.628;6.664;2023-12-04T05:27:53;7.07;;;5.73;;
9906;SDS011;4992;51.628;6.664;2023-12-04T05:30:18;7.73;;;5.50;;
9906;SDS011;4992;51.628;6.664;2023-12-04T05:32:44;6.93;;;5.23;;
9906;SDS011;4992;51.628;6.664;2023-12-04T05:35:09;9.00;;;6.17;;
9906;SDS011;4992;51.628;6.664;2023-12-04T05:37:35;9.43;;;6.13;;
9906;SDS011;4992;51.628;6.664;2023-12-04T05:40:00;8.47;;;5.60;;
9906;SDS011;4992;51.628;6.664;2023-12-04T05:42:26;9.70;;;5.47;;
9906;SDS011;4992;51.628;6.664;2023-12-04T05:44:51;6.30;;;5.33;;
9906;SDS011;4992;51.628;6.664;2023-12-04T05:47:20;7.87;;;5.43;;
9906;SDS011;4992;51.628;6.664;2023-12-04T05:49:46;6.77;;;4.70;;
9906;SDS011;4992;51.628;6.664;2023-12-04T05:52:11;8.97;;;5.60;;
9906;SDS011;4992;51.628;6.664;2023-12-04T05:54:37;7.13;;;4.90;;
9906;SDS011;4992;51.628;6.664;2023-12-04T05:57:03;7.03;;;5.07;;
9906;SDS011;4992;51.628;6.664;2023-12-04T05:59:28;6.23;;;5.17;;
9906;SDS011;4992;51.628;6.664;2023-12-04T06:01:54;6.83;;;5.20;;
9906;SDS011;4992;51.628;6.664;2023-12-04T06:04:19;5.43;;;4.93;;
9906;SDS011;4992;51.628;6.664;2023-12-04T06:06:45;8.17;;;4.70;;
9906;SDS011;4992;51.628;6.664;2023-12-04T06:09:10;6.87;;;5.03;;
9906;SDS011;4992;51.628;6.664;2023-12-04T06:11:36;8.00;;;5.00;;
9906;SDS011;4992;51.628;6.664;2023-12-04T06:14:01;6.20;;;5.13;;
9906;SDS011;4992;51.628;6.664;2023-12-04T06:16:27;8.43;;;5.27;;
9906;SDS011;4992;51.628;6.664;2023-12-04T06:18:52;7.50;;;6.30;;
9906;SDS011;4992;51.628;6.664;2023-12-04T06:21:18;9.87;;;6.10;;
9906;SDS011;4992;51.628;6.664;2023-12-04T06:23:43;6.93;;;5.20;;
9906;SDS011;4992;51.628;6.664;2023-12-04T06:26:10;6.07;;;5.37;;
9906;SDS011;4992;51.628;6.664;2023-12-04T06:28:37;5.70;;;5.17;;
9906;SDS011;4992;51.628;6.664;2023-12-04T06:31:03;5.60;;;4.87;;
9906;SDS011;4992;51.628;6.664;2023-12-04T06:33:29;6.10;;;4.90;;
9906;SDS011;4992;51.628;6.664;2023-12-04T06:35:55;7.83;;;5.40;;
9906;SDS011;4992;51.628;6.664;2023-12-04T06:38:22;6.90;;;5.47;;
9906;SDS011;4992;51.628;6.664;2023-12-04T06:40:49;5.70;;;5.03;;
9906;SDS011;4992;51.628;6.664;2023-12-04T06:43:15;7.27;;;4.60;;
9906;SDS011;4992;51.628;6.664;2023-12-04T06:45:43;7.47;;;4.97;;
9906;SDS011;4992;51.628;6.664;2023-12-04T06:48:10;6.57;;;5.20;;
9906;SDS011;4992;51.628;6.664;2023-12-04T06:50:38;6.53;;;5.20;;
9906;SDS011;4992;51.628;6.664;2023-12-04T06:53:05;8.60;;;5.70;;
9906;SDS011;4992;51.628;6.664;2023-12-04T06:55:31;7.30;;;5.77;;
9906;SDS011;4992;51.628;6.664;2023-12-04T06:57:56;6.33;;;5.67;;
9906;SDS011;4992;51.628;6.664;2023-12-04T07:00:22;7.03;;;5.43;;
9906;SDS011;4992;51.628;6.664;2023-12-04T07:02:47;6.43;;;4.87;;
9906;SDS011;4992;51.628;6.664;2023-12-04T07:05:13;8.17;;;5.13;;
9906;SDS011;4992;51.628;6.664;2023-12-04T07:07:38;7.10;;;4.90;;
9906;SDS011;4992;51.628;6.664;2023-12-04T07:10:04;8.07;;;5.87;;
9906;SDS011;4992;51.628;6.664;2023-12-04T07:12:30;6.73;;;5.53;;
9906;SDS011;4992;51.628;6.664;2023-12-04T07:14:55;5.90;;;5.20;;
9906;SDS011;4992;51.628;6.664;2023-12-04T07:17:21;7.27;;;6.23;;
9906;SDS011;4992;51.628;6.664;2023-12-04T07:19:47;6.53;;;5.67;;
9906;SDS011;4992;51.628;6.664;2023-12-04T07:22:12;8.83;;;6.50;;
9906;SDS011;4992;51.628;6.664;2023-12-04T07:24:38;12.90;;;9.13;;
9906;SDS011;4992;51.628;6.664;2023-12-04T07:27:04;14.83;;;7.73;;
9906;SDS011;4992;51.628;6.664;2023-12-04T07:29:29;6.80;;;6.00;;
9906;SDS011;4992;51.628;6.664;2023-12-04T07:31:55;7.27;;;5.67;;
9906;SDS011;4992;51.628;6.664;2023-12-04T07:34:20;7.87;;;5.97;;
9906;SDS011;4992;51.628;6.664;2023-12-04T07:36:46;6.77;;;5.07;;
9906;SDS011;4992;51.628;6.664;2023-12-04T07:39:13;6.50;;;5.70;;
9906;SDS011;4992;51.628;6.664;2023-12-04T07:41:39;8.10;;;5.63;;
9906;SDS011;4992;51.628;6.664;2023-12-04T07:44:05;7.20;;;5.80;;
9906;SDS011;4992;51.628;6.664;2023-12-04T07:46:31;11.57;;;6.43;;
9906;SDS011;4992;51.628;6.664;2023-12-04T07:48:56;7.20;;;6.03;;
9906;SDS011;4992;51.628;6.664;2023-12-04T07:51:23;9.17;;;6.40;;
9906;SDS011;4992;51.628;6.664;2023-12-04T07:53:48;7.73;;;6.27;;
9906;SDS011;4992;51.628;6.664;2023-12-04T07:56:14;7.37;;;6.17;;
9906;SDS011;4992;51.628;6.664;2023-12-04T07:58:40;8.20;;;6.30;;
9906;SDS011;4992;51.628;6.664;2023-12-04T08:01:05;7.17;;;6.13;;
9906;SDS011;4992;51.628;6.664;2023-12-04T08:03:31;8.20;;;6.43;;
9906;SDS011;4992;51.628;6.664;2023-12-04T08:05:57;10.23;;;6.70;;
9906;SDS011;4992;51.628;6.664;2023-12-04T08:08:23;8.93;;;6.13;;
9906;SDS011;4992;51.628;6.664;2023-12-04T08:10:49;8.47;;;6.50;;
9906;SDS011;4992;51.628;6.664;2023-12-04T08:13:15;8.37;;;6.27;;
9906;SDS011;4992;51.628;6.664;2023-12-04T08:15:41;7.47;;;6.47;;
9906;SDS011;4992;51.628;6.664;2023-12-04T08:18:07;9.00;;;6.17;;
9906;SDS011;4992;51.628;6.664;2023-12-04T08:20:32;9.30;;;6.70;;
9906;SDS011;4992;51.628;6.664;2023-12-04T08:22:58;7.73;;;6.40;;
9906;SDS011;4992;51.628;6.664;2023-12-04T08:25:23;7.00;;;5.93;;
9906;SDS011;4992;51.628;6.664;2023-12-04T08:27:49;8.83;;;6.83;;
9906;SDS011;4992;51.628;6.664;2023-12-04T08:30:16;7.83;;;6.03;;
9906;SDS011;4992;51.628;6.664;2023-12-04T08:32:41;8.47;;;6.60;;
9906;SDS011;4992;51.628;6.664;2023-12-04T08:35:07;8.97;;;6.47;;
9906;SDS011;4992;51.628;6.664;2023-12-04T08:37:33;10.07;;;7.13;;
9906;SDS011;4992;51.628;6.664;2023-12-04T08:39:58;10.87;;;7.50;;
9906;SDS011;4992;51.628;6.664;2023-12-04T08:42:24;9.37;;;7.17;;
9906;SDS011;4992;51.628;6.664;2023-12-04T08:44:49;10.87;;;7.37;;
9906;SDS011;4992;51.628;6.664;2023-12-04T08:47:15;11.87;;;8.13;;
9906;SDS011;4992;51.628;6.664;2023-12-04T08:49:40;10.43;;;7.90;;
9906;SDS011;4992;51.628;6.664;2023-12-04T08:52:08;11.80;;;7.53;;
9906;SDS011;4992;51.628;6.664;2023-12-04T08:54:34;9.93;;;7.30;;
9906;SDS011;4992;51.628;6.664;2023-12-04T08:57:00;12.17;;;7.60;;
9906;SDS011;4992;51.628;6.664;2023-12-04T08:59:26;13.83;;;7.67;;
9906;SDS011;4992;51.628;6.664;2023-12-04T09:01:51;10.63;;;7.67;;
9906;SDS011;4992;51.628;6.664;2023-12-04T09:04:17;12.67;;;7.07;;
9906;SDS011;4992;51.628;6.664;2023-12-04T09:06:42;10.93;;;7.63;;
9906;SDS011;4992;51.628;6.664;2023-12-04T09:09:08;10.37;;;7.40;;
9906;SDS011;4992;51.628;6.664;2023-12-04T09:11:33;8.57;;;6.93;;
9906;SDS011;4992;51.628;6.664;2023-12-04T09:13:59;11.57;;;6.70;;
9906;SDS011;4992;51.628;6.664;2023-12-04T09:16:25;9.33;;;6.90;;
9906;SDS011;4992;51.628;6.664;2023-12-04T09:18:50;8.43;;;6.27;;
9906;SDS011;4992;51.628;6.664;2023-12-04T09:21:16;10.87;;;6.07;;
9906;SDS011;4992;51.628;6.664;2023-12-04T09:23:42;10.03;;;6.43;;
9906;SDS011;4992;51.628;6.664;2023-12-04T09:26:07;9.10;;;5.70;;
9906;SDS011;4992;51.628;6.664;2023-12-04T09:28:33;11.50;;;7.67;;
9906;SDS011;4992;51.628;6.664;2023-12-04T09:31:00;10.03;;;7.30;;
9906;SDS011;4992;51.628;6.664;2023-12-04T09:33:26;11.47;;;8.10;;
9906;SDS011;4992;51.628;6.664;2023-12-04T09:35:51;7.93;;;5.77;;
9906;SDS011;4992;51.628;6.664;2023-12-04T09:38:17;7.53;;;4.93;;
9906;SDS011;4992;51.628;6.664;2023-12-04T09:40:43;5.27;;;4.53;;
9906;SDS011;4992;51.628;6.664;2023-12-04T09:43:09;9.17;;;4.50;;
9906;SDS011;4992;51.628;6.664;2023-12-04T09:45:35;4.50;;;3.80;;
9906;SDS011;4992;51.628;6.664;2023-12-04T09:48:03;4.83;;;4.20;;
9906;SDS011;4992;51.628;6.664;2023-12-04T09:50:28;5.30;;;4.30;;
9906;SDS011;4992;51.628;6.664;2023-12-04T09:52:54;9.03;;;4.50;;
9906;SDS011;4992;51.628;6.664;2023-12-04T09:55:20;5.00;;;4.03;;
9906;SDS011;4992;51.628;6.664;2023-12-04T09:57:46;4.53;;;3.87;;
9906;SDS011;4992;51.628;6.664;2023-12-04T10:00:15;4.10;;;3.67;;
9906;SDS011;4992;51.628;6.664;2023-12-04T10:02:40;6.37;;;3.40;;
9906;SDS011;4992;51.628;6.664;2023-12-04T10:05:07;7.10;;;3.80;;
9906;SDS011;4992;51.628;6.664;2023-12-04T10:07:33;5.97;;;4.20;;
9906;SDS011;4992;51.628;6.664;2023-12-04T10:09:59;5.13;;;3.67;;
9906;SDS011;4992;51.628;6.664;2023-12-04T10:12:25;4.17;;;3.70;;
9906;SDS011;4992;51.628;6.664;2023-12-04T10:15:09;4.30;;;3.90;;
9906;SDS011;4992;51.628;6.664;2023-12-04T10:17:36;5.40;;;3.70;;
9906;SDS011;4992;51.628;6.664;2023-12-04T10:20:06;4.50;;;3.90;;
9906;SDS011;4992;51.628;6.664;2023-12-04T10:22:36;6.53;;;3.70;;
9906;SDS011;4992;51.628;6.664;2023-12-04T10:25:15;4.53;;;4.10;;
9906;SDS011;4992;51.628;6.664;2023-12-04T10:27:41;9.23;;;4.67;;
9906;SDS011;4992;51.628;6.664;2023-12-04T10:30:07;4.10;;;3.70;;
9906;SDS011;4992;51.628;6.664;2023-12-04T10:32:36;5.67;;;4.30;;
9906;SDS011;4992;51.628;6.664;2023-12-04T10:35:05;6.97;;;3.70;;
9906;SDS011;4992;51.628;6.664;2023-12-04T10:37:35;4.33;;;3.93;;
9906;SDS011;4992;51.628;6.664;2023-12-04T10:40:01;8.60;;;4.33;;
9906;SDS011;4992;51.628;6.664;2023-12-04T10:42:28;5.97;;;5.37;;
9906;SDS011;4992;51.628;6.664;2023-12-04T10:44:57;5.10;;;4.20;;
9906;SDS011;4992;51.628;6.664;2023-12-04T10:47:24;5.03;;;4.53;;
9906;SDS011;4992;51.628;6.664;2023-12-04T10:49:52;5.47;;;3.97;;
9906;SDS011;4992;51.628;6.664;2023-12-04T10:52:18;6.00;;;4.60;;
9906;SDS011;4992;51.628;6.664;2023-12-04T10:54:47;5.30;;;4.07;;
9906;SDS011;4992;51.628;6.664;2023-12-04T10:57:13;4.90;;;3.83;;
9906;SDS011;4992;51.628;6.664;2023-12-04T10:59:46;6.10;;;4.30;;
9906;SDS011;4992;51.628;6.664;2023-12-04T11:02:14;5.90;;;4.20;;
9906;SDS011;4992;51.628;6.664;2023-12-04T11:04:46;5.77;;;3.90;;
9906;SDS011;4992;51.628;6.664;2023-12-04T11:07:15;7.70;;;4.23;;
9906;SDS011;4992;51.628;6.664;2023-12-04T11:09:42;5.20;;;4.40;;
9906;SDS011;4992;51.628;6.664;2023-12-04T11:12:11;6.33;;;3.80;;
9906;SDS011;4992;51.628;6.664;2023-12-04T11:14:44;5.67;;;4.00;;
9906;SDS011;4992;51.628;6.664;2023-12-04T11:17:14;4.97;;;3.90;;
9906;SDS011;4992;51.628;6.664;2023-12-04T11:19:49;4.67;;;4.07;;
9906;SDS011;4992;51.628;6.664;2023-12-04T11:22:26;5.20;;;4.43;;
9906;SDS011;4992;51.628;6.664;2023-12-04T11:24:52;5.73;;;4.27;;
9906;SDS011;4992;51.628;6.664;2023-12-04T11:27:18;6.43;;;4.83;;
9906;SDS011;4992;51.628;6.664;2023-12-04T11:29:44;8.63;;;4.63;;
9906;SDS011;4992;51.628;6.664;2023-12-04T11:32:15;7.80;;;5.17;;
9906;SDS011;4992;51.628;6.664;2023-12-04T11:34:49;6.13;;;4.60;;
9906;SDS011;4992;51.628;6.664;2023-12-04T11:37:15;9.33;;;4.53;;
9906;SDS011;4992;51.628;6.664;2023-12-04T11:39:41;6.80;;;4.80;;
9906;SDS011;4992;51.628;6.664;2023-12-04T11:42:06;6.07;;;4.90;;
9906;SDS011;4992;51.628;6.664;2023-12-04T11:44:32;6.27;;;4.50;;
9906;SDS011;4992;51.628;6.664;2023-12-04T11:47:07;7.13;;;4.73;;
9906;SDS011;4992;51.628;6.664;2023-12-04T11:49:33;5.80;;;4.90;;
9906;SDS011;4992;51.628;6.664;2023-12-04T11:52:00;6.33;;;5.00;;
9906;SDS011;4992;51.628;6.664;2023-12-04T11:54:35;6.43;;;4.23;;
9906;SDS011;4992;51.628;6.664;2023-12-04T11:57:24;8.53;;;4.90;;
9906;SDS011;4992;51.628;6.664;2023-12-04T11:59:51;5.20;;;4.70;;
9906;SDS011;4992;51.628;6.664;2023-12-04T12:02:17;5.80;;;5.17;;
9906;SDS011;4992;51.628;6.664;2023-12-04T12:04:43;8.33;;;5.63;;
9906;SDS011;4992;51.628;6.664;2023-12-04T12:07:10;8.57;;;5.87;;
9906;SDS011;4992;51.628;6.664;2023-12-04T12:09:36;8.77;;;6.07;;
9906;SDS011;4992;51.628;6.664;2023-12-04T12:12:02;7.87;;;5.90;;
9906;SDS011;4992;51.628;6.664;2023-12-04T12:14:29;9.20;;;5.83;;
9906;SDS011;4992;51.628;6.664;2023-12-04T12:16:55;10.50;;;6.53;;
9906;SDS011;4992;51.628;6.664;2023-12-04T12:19:23;7.87;;;6.27;;
9906;SDS011;4992;51.628;6.664;2023-12-04T12:21:49;10.70;;;6.83;;
9906;SDS011;4992;51.628;6.664;2023-12-04T12:24:16;8.17;;;7.00;;
9906;SDS011;4992;51.628;6.664;2023-12-04T12:26:43;9.07;;;6.80;;
9906;SDS011;4992;51.628;6.664;2023-12-04T12:29:09;8.80;;;6.40;;
9906;SDS011;4992;51.628;6.664;2023-12-04T12:31:35;7.90;;;6.00;;
9906;SDS011;4992;51.628;6.664;2023-12-04T12:34:00;9.67;;;6.30;;
9906;SDS011;4992;51.628;6.664;2023-12-04T12:36:27;8.90;;;6.40;;
9906;SDS011;4992;51.628;6.664;2023-12-04T12:38:53;7.93;;;6.00;;
9906;SDS011;4992;51.628;6.664;2023-12-04T12:41:19;9.80;;;6.70;;
9906;SDS011;4992;51.628;6.664;2023-12-04T12:43:45;7.87;;;6.33;;
9906;SDS011;4992;51.628;6.664;2023-12-04T12:46:12;7.37;;;6.10;;
9906;SDS011;4992;51.628;6.664;2023-12-04T12:48:38;8.80;;;7.23;;
9906;SDS011;4992;51.628;6.664;2023-12-04T12:51:04;7.27;;;5.87;;
9906;SDS011;4992;51.628;6.664;2023-12-04T12:53:34;8.93;;;7.07;;
9906;SDS011;4992;51.628;6.664;2023-12-04T12:56:00;7.53;;;6.33;;
9906;SDS011;4992;51.628;6.664;2023-12-04T12:58:26;9.53;;;6.00;;
9906;SDS011;4992;51.628;6.664;2023-12-04T13:00:52;8.13;;;6.00;;
9906;SDS011;4992;51.628;6.664;2023-12-04T13:03:18;7.50;;;6.67;;
9906;SDS011;4992;51.628;6.664;2023-12-04T13:05:44;6.90;;;6.20;;
9906;SDS011;4992;51.628;6.664;2023-12-04T13:08:11;8.53;;;6.20;;
9906;SDS011;4992;51.628;6.664;2023-12-04T13:10:37;9.90;;;7.03;;
9906;SDS011;4992;51.628;6.664;2023-12-04T13:13:03;9.57;;;7.27;;
9906;SDS011;4992;51.628;6.664;2023-12-04T13:15:29;8.33;;;6.53;;
9906;SDS011;4992;51.628;6.664;2023-12-04T13:17:54;8.73;;;6.30;;
9906;SDS011;4992;51.628;6.664;2023-12-04T13:20:21;7.90;;;7.10;;
9906;SDS011;4992;51.628;6.664;2023-12-04T13:22:48;9.17;;;7.40;;
9906;SDS011;4992;51.628;6.664;2023-12-04T13:25:14;8.93;;;6.53;;
9906;SDS011;4992;51.628;6.664;2023-12-04T13:27:40;8.80;;;6.67;;
9906;SDS011;4992;51.628;6.664;2023-12-04T13:30:08;8.53;;;6.90;;
9906;SDS011;4992;51.628;6.664;2023-12-04T13:32:35;9.53;;;6.50;;
9906;SDS011;4992;51.628;6.664;2023-12-04T13:35:02;9.20;;;6.40;;
9906;SDS011;4992;51.628;6.664;2023-12-04T13:37:29;9.23;;;6.47;;
9906;SDS011;4992;51.628;6.664;2023-12-04T13:39:59;10.27;;;6.27;;
9906;SDS011;4992;51.628;6.664;2023-12-04T13:42:29;8.70;;;6.60;;
9906;SDS011;4992;51.628;6.664;2023-12-04T13:45:13;7.70;;;6.77;;
9906;SDS011;4992;51.628;6.664;2023-12-04T13:47:39;8.17;;;6.67;;
9906;SDS011;4992;51.628;6.664;2023-12-04T13:50:08;9.87;;;6.03;;
9906;SDS011;4992;51.628;6.664;2023-12-04T13:52:34;7.97;;;6.47;;
9906;SDS011;4992;51.628;6.664;2023-12-04T13:55:00;7.20;;;6.40;;
9906;SDS011;4992;51.628;6.664;2023-12-04T13:57:26;8.80;;;6.47;;
9906;SDS011;4992;51.628;6.664;2023-12-04T14:00:09;7.07;;;6.03;;
9906;SDS011;4992;51.628;6.664;2023-12-04T14:02:35;9.20;;;6.70;;
9906;SDS011;4992;51.628;6.664;2023-12-04T14:05:02;7.93;;;6.47;;
9906;SDS011;4992;51.628;6.664;2023-12-04T14:07:28;6.97;;;6.27;;
9906;SDS011;4992;51.628;6.664;2023-12-04T14:09:53;8.37;;;7.27;;
9906;SDS011;4992;51.628;6.664;2023-12-04T14:12:19;7.97;;;6.50;;
9906;SDS011;4992;51.628;6.664;2023-12-04T14:14:45;8.57;;;6.50;;
9906;SDS011;4992;51.628;6.664;2023-12-04T14:17:10;7.03;;;6.20;;
9906;SDS011;4992;51.628;6.664;2023-12-04T14:19:36;9.83;;;6.63;;
9906;SDS011;4992;51.628;6.664;2023-12-04T14:22:04;7.20;;;6.27;;
9906;SDS011;4992;51.628;6.664;2023-12-04T14:24:30;6.87;;;5.53;;
9906;SDS011;4992;51.628;6.664;2023-12-04T14:26:55;7.50;;;5.20;;
9906;SDS011;4992;51.628;6.664;2023-12-04T14:29:21;6.63;;;5.90;;
9906;SDS011;4992;51.628;6.664;2023-12-04T14:31:47;7.03;;;6.37;;
9906;SDS011;4992;51.628;6.664;2023-12-04T14:34:12;7.43;;;6.07;;
9906;SDS011;4992;51.628;6.664;2023-12-04T14:36:38;6.03;;;5.30;;
9906;SDS011;4992;51.628;6.664;2023-12-04T14:39:04;7.03;;;5.50;;
9906;SDS011;4992;51.628;6.664;2023-12-04T14:41:30;6.80;;;5.47;;
9906;SDS011;4992;51.628;6.664;2023-12-04T14:43:56;6.00;;;5.40;;
9906;SDS011;4992;51.628;6.664;2023-12-04T14:46:22;6.77;;;5.17;;
9906;SDS011;4992;51.628;6.664;2023-12-04T14:48:47;5.50;;;4.83;;
9906;SDS011;4992;51.628;6.664;2023-12-04T14:51:13;6.17;;;5.57;;
9906;SDS011;4992;51.628;6.664;2023-12-04T14:53:39;5.77;;;5.20;;
9906;SDS011;4992;51.628;6.664;2023-12-04T14:56:36;9.70;;;5.67;;
9906;SDS011;4992;51.628;6.664;2023-12-04T14:59:02;5.93;;;5.23;;
9906;SDS011;4992;51.628;6.664;2023-12-04T15:01:31;7.20;;;5.13;;
9906;SDS011;4992;51.628;6.664;2023-12-04T15:03:57;11.77;;;9.20;;